Alburaq — 3ESY9 — position and weather

sailwx.info

Track history (hours):
 
Tides and Currents Weather Stations Pressure Air Temp Water Temp Dewpoint Dewpoint Depression Visibility Wind Speed Wind Dir Waves Ship Positions

Alburaq

Last reported at 2017-Oct-26 23:26 UTC. Time now 2017-Dec-17 19:54 UTC.
Position N 31°32' E 032°13'.
Warning: this ship's position is 51 days out of date.

Length 250 m; draft 13 m.

Type: Tanker. MMSI: 370467000.

Date/timePositionNaut miles runAvg speedWind from/ knotsBaromVisibWave heightAir tempDewpointWater temp
2017-Oct-26 23:26N 31°32' E 032°13'3 7.0
2017-Oct-26 22:58N 31°35' E 032°10'510.3
2017-Oct-26 22:30N 31°38' E 032°06'5 9.0
2017-Oct-26 22:00N 31°41' E 032°02'611.2
2017-Oct-26 21:30N 31°45' E 031°57'711.5
2017-Oct-26 20:53N 31°47' E 031°49'711.7
2017-Oct-26 20:15N 31°50' E 031°42'311.7
2017-Oct-26 20:00N 31°52' E 031°39'611.9
2017-Oct-26 19:30N 31°55' E 031°33'612.2
2017-Oct-26 19:00N 31°59' E 031°27'612.4
2017-Oct-26 18:30N 32°04' E 031°22'712.2
2017-Oct-26 17:56N 32°09' E 031°17'611.9
2017-Oct-26 17:27N 32°13' E 031°12'  
2017-Oct-23 22:59N 36°13' E 014°48'613.1
2017-Oct-23 22:30N 36°15' E 014°41'713.4
2017-Oct-23 22:00N 36°18' E 014°33'613.1
2017-Oct-23 21:30N 36°20' E 014°26'712.9
2017-Oct-23 21:00N 36°22' E 014°18'712.9
2017-Oct-23 20:30N 36°25' E 014°11'612.8
2017-Oct-23 20:00N 36°27' E 014°03'612.8
2017-Oct-23 19:30N 36°29' E 013°56'812.8
2017-Oct-23 18:53N 36°32' E 013°47'59412.6
2017-Oct-21 19:36N 37°02' E 001°27'112.8
2017-Oct-21 19:31N 37°01' E 001°25'712.9
2017-Oct-21 19:00N 36°59' E 001°17'612.8
2017-Oct-21 18:31N 36°58' E 001°10'712.9
2017-Oct-21 18:00N 36°56' E 001°02'713.2
2017-Oct-21 17:30N 36°54' E 000°54'713.3
2017-Oct-21 17:00N 36°53' E 000°46'713.6
2017-Oct-21 16:30N 36°51' E 000°38'713.6
2017-Oct-21 16:01N 36°49' E 000°29'713.5
2017-Oct-21 15:30N 36°47' E 000°21'713.4
2017-Oct-21 15:00N 36°46' E 000°13'713.5
2017-Oct-21 14:31N 36°44' E 000°05'1513.5
2017-Oct-21 13:24N 36°40' W 000°13'613.3
2017-Oct-21 12:55N 36°38' W 000°21'23914.2
2017-Oct-20 20:05N 36°01' W 005°14'116.5
2017-Oct-20 20:00N 36°01' W 005°16'916.9
2017-Oct-20 19:29N 35°58' W 005°26'25911.8
2017-Oct-19 21:28N 38°12' W 010°03'713.8
2017-Oct-19 20:56N 38°19' W 010°05'813.7
2017-Oct-19 20:23N 38°27' W 010°07'513.3
2017-Oct-19 20:00N 38°32' W 010°09'713.5
2017-Oct-19 19:30N 38°38' W 010°10'712.9
2017-Oct-19 19:00N 38°45' W 010°11'713.4
2017-Oct-19 18:30N 38°51' W 010°11'714.1
2017-Oct-19 18:00N 38°58' W 010°11'714.2
2017-Oct-19 17:30N 39°06' W 010°11'713.9
2017-Oct-19 17:01N 39°12' W 010°11'53412.7
2017-Oct-17 23:07N 47°45' W 006°45'412.8
2017-Oct-17 22:46N 47°49' W 006°42'612.7
2017-Oct-17 22:20N 47°54' W 006°38'10711.9
2017-Oct-17 13:22N 49°15' W 004°54'2411.8
2017-Oct-17 11:21N 49°27' W 004°22'813.1
2017-Oct-17 10:45N 49°31' W 004°11'913.5
2017-Oct-17 10:03N 49°36' W 003°59'813.6
2017-Oct-17 09:26N 49°40' W 003°48'1213.4
2017-Oct-17 08:34N 49°46' W 003°32'113.1
2017-Oct-17 08:30N 49°46' W 003°31'612.6
2017-Oct-17 08:01N 49°49' W 003°23'612.0
2017-Oct-17 07:30N 49°52' W 003°15'611.4
2017-Oct-17 07:01N 49°55' W 003°07'510.7
2017-Oct-17 06:30N 49°58' W 002°60'5 9.6
2017-Oct-17 06:00N 49°59' W 002°53'4 8.5
2017-Oct-17 05:29N 50°01' W 002°46'4 8.3
2017-Oct-17 05:00N 50°02' W 002°40'6110.9
2017-Oct-16 23:26N 50°18' W 001°09'  
Track history (hours):
 
Tides and Currents Weather Stations Pressure Air Temp Water Temp Dewpoint Dewpoint Depression Visibility Wind Speed Wind Dir Waves Ship Positions

Alburaq

Last reported at 2017-Oct-26 23:26 UTC. Time now 2017-Dec-17 19:54 UTC.
Position N 31°32' E 032°13'.
Warning: this ship's position is 51 days out of date.

Length 250 m; draft 13 m.

Type: Tanker. MMSI: 370467000.

Date/timePositionNaut miles runAvg speedWind from/ knotsBaromVisibWave heightAir tempDewpointWater temp
2017-Oct-26 23:26N 31°32' E 032°13'3 7.0
2017-Oct-26 22:58N 31°35' E 032°10'510.3
2017-Oct-26 22:30N 31°38' E 032°06'5 9.0
2017-Oct-26 22:00N 31°41' E 032°02'611.2
2017-Oct-26 21:30N 31°45' E 031°57'711.5
2017-Oct-26 20:53N 31°47' E 031°49'711.7
2017-Oct-26 20:15N 31°50' E 031°42'311.7
2017-Oct-26 20:00N 31°52' E 031°39'611.9
2017-Oct-26 19:30N 31°55' E 031°33'612.2
2017-Oct-26 19:00N 31°59' E 031°27'612.4
2017-Oct-26 18:30N 32°04' E 031°22'712.2
2017-Oct-26 17:56N 32°09' E 031°17'611.9
2017-Oct-26 17:27N 32°13' E 031°12'  
2017-Oct-23 22:59N 36°13' E 014°48'613.1
2017-Oct-23 22:30N 36°15' E 014°41'713.4
2017-Oct-23 22:00N 36°18' E 014°33'613.1
2017-Oct-23 21:30N 36°20' E 014°26'712.9
2017-Oct-23 21:00N 36°22' E 014°18'712.9
2017-Oct-23 20:30N 36°25' E 014°11'612.8
2017-Oct-23 20:00N 36°27' E 014°03'612.8
2017-Oct-23 19:30N 36°29' E 013°56'812.8
2017-Oct-23 18:53N 36°32' E 013°47'59412.6
2017-Oct-21 19:36N 37°02' E 001°27'112.8
2017-Oct-21 19:31N 37°01' E 001°25'712.9
2017-Oct-21 19:00N 36°59' E 001°17'612.8
2017-Oct-21 18:31N 36°58' E 001°10'712.9
2017-Oct-21 18:00N 36°56' E 001°02'713.2
2017-Oct-21 17:30N 36°54' E 000°54'713.3
2017-Oct-21 17:00N 36°53' E 000°46'713.6
2017-Oct-21 16:30N 36°51' E 000°38'713.6
2017-Oct-21 16:01N 36°49' E 000°29'713.5
2017-Oct-21 15:30N 36°47' E 000°21'713.4
2017-Oct-21 15:00N 36°46' E 000°13'713.5
2017-Oct-21 14:31N 36°44' E 000°05'1513.5
2017-Oct-21 13:24N 36°40' W 000°13'613.3
2017-Oct-21 12:55N 36°38' W 000°21'23914.2
2017-Oct-20 20:05N 36°01' W 005°14'116.5
2017-Oct-20 20:00N 36°01' W 005°16'916.9
2017-Oct-20 19:29N 35°58' W 005°26'25911.8
2017-Oct-19 21:28N 38°12' W 010°03'713.8
2017-Oct-19 20:56N 38°19' W 010°05'813.7
2017-Oct-19 20:23N 38°27' W 010°07'513.3
2017-Oct-19 20:00N 38°32' W 010°09'713.5
2017-Oct-19 19:30N 38°38' W 010°10'712.9
2017-Oct-19 19:00N 38°45' W 010°11'713.4
2017-Oct-19 18:30N 38°51' W 010°11'714.1
2017-Oct-19 18:00N 38°58' W 010°11'714.2
2017-Oct-19 17:30N 39°06' W 010°11'713.9
2017-Oct-19 17:01N 39°12' W 010°11'53412.7
2017-Oct-17 23:07N 47°45' W 006°45'412.8
2017-Oct-17 22:46N 47°49' W 006°42'612.7
2017-Oct-17 22:20N 47°54' W 006°38'10711.9
2017-Oct-17 13:22N 49°15' W 004°54'2411.8
2017-Oct-17 11:21N 49°27' W 004°22'813.1
2017-Oct-17 10:45N 49°31' W 004°11'913.5
2017-Oct-17 10:03N 49°36' W 003°59'813.6
2017-Oct-17 09:26N 49°40' W 003°48'1213.4
2017-Oct-17 08:34N 49°46' W 003°32'113.1
2017-Oct-17 08:30N 49°46' W 003°31'612.6
2017-Oct-17 08:01N 49°49' W 003°23'612.0
2017-Oct-17 07:30N 49°52' W 003°15'611.4
2017-Oct-17 07:01N 49°55' W 003°07'510.7
2017-Oct-17 06:30N 49°58' W 002°60'5 9.6
2017-Oct-17 06:00N 49°59' W 002°53'4 8.5
2017-Oct-17 05:29N 50°01' W 002°46'4 8.3
2017-Oct-17 05:00N 50°02' W 002°40'6110.9
2017-Oct-16 23:26N 50°18' W 001°09'  

Dump ship's entire track history